Promise, South Dakota
Current Conditions -  °F | °C
As of 9:52 PM on Friday 28 Nov 2014 (Local Time) from KMBG Reporting Station
Clear Clear  
Wind Chill: 14°   Ceiling: Unl
Heat Index: 24°   Visibility: 10mi
Dew Point: 20°   Wind: 10mph
Humidity: 84%   Direction: 140°SE
Pressure: 29.45"   Gusts: NA
Location:  45.5528°N, 100.336°W
Report Text: KMBG 290352Z AUTO 14009KT 10SM CLR M04/M07 A2945 RMK AO2 SLP997 T10441067
Loading
Personal Weather Stations






























Interactive Weather Map New forecast layout! Learn more

10-Day Weather Forecast

Advertisements
Track Severe Weather on mobile